sensor_id;sensor_type;location;lat;lon;timestamp;temperature;humidity
7530;DHT22;3806;52.270;10.544;2022-07-29T00:00:40;17.70;53.80
7530;DHT22;3806;52.270;10.544;2022-07-29T00:03:06;17.80;53.90
7530;DHT22;3806;52.270;10.544;2022-07-29T00:05:31;17.80;53.90
7530;DHT22;3806;52.270;10.544;2022-07-29T00:07:57;17.70;54.20
7530;DHT22;3806;52.270;10.544;2022-07-29T00:10:23;17.70;54.60
7530;DHT22;3806;52.270;10.544;2022-07-29T00:12:48;17.60;55.30
7530;DHT22;3806;52.270;10.544;2022-07-29T00:15:14;17.60;55.00
7530;DHT22;3806;52.270;10.544;2022-07-29T00:17:40;17.60;55.20
7530;DHT22;3806;52.270;10.544;2022-07-29T00:20:06;17.50;55.50
7530;DHT22;3806;52.270;10.544;2022-07-29T00:22:32;17.50;55.70
7530;DHT22;3806;52.270;10.544;2022-07-29T00:24:58;17.50;56.10
7530;DHT22;3806;52.270;10.544;2022-07-29T00:27:23;17.60;56.40
7530;DHT22;3806;52.270;10.544;2022-07-29T00:29:49;17.50;56.30
7530;DHT22;3806;52.270;10.544;2022-07-29T00:32:14;17.60;56.40
7530;DHT22;3806;52.270;10.544;2022-07-29T00:34:40;17.60;56.20
7530;DHT22;3806;52.270;10.544;2022-07-29T00:37:24;17.70;56.00
7530;DHT22;3806;52.270;10.544;2022-07-29T00:39:50;17.60;56.30
7530;DHT22;3806;52.270;10.544;2022-07-29T00:42:16;17.50;56.50
7530;DHT22;3806;52.270;10.544;2022-07-29T00:44:42;17.50;56.70
7530;DHT22;3806;52.270;10.544;2022-07-29T00:47:09;17.40;56.80
7530;DHT22;3806;52.270;10.544;2022-07-29T00:49:35;17.40;57.10
7530;DHT22;3806;52.270;10.544;2022-07-29T00:52:06;17.40;57.00
7530;DHT22;3806;52.270;10.544;2022-07-29T00:54:33;17.40;57.20
7530;DHT22;3806;52.270;10.544;2022-07-29T00:56:59;17.30;57.30
7530;DHT22;3806;52.270;10.544;2022-07-29T00:59:28;17.20;57.30
7530;DHT22;3806;52.270;10.544;2022-07-29T01:01:54;17.30;57.70
7530;DHT22;3806;52.270;10.544;2022-07-29T01:04:21;17.40;58.10
7530;DHT22;3806;52.270;10.544;2022-07-29T01:06:47;17.40;58.30
7530;DHT22;3806;52.270;10.544;2022-07-29T01:09:14;17.40;58.50
7530;DHT22;3806;52.270;10.544;2022-07-29T01:11:42;17.40;58.50
7530;DHT22;3806;52.270;10.544;2022-07-29T01:14:09;17.40;58.70
7530;DHT22;3806;52.270;10.544;2022-07-29T01:16:45;17.40;58.80
7530;DHT22;3806;52.270;10.544;2022-07-29T01:21:51;17.40;59.00
7530;DHT22;3806;52.270;10.544;2022-07-29T01:27:14;17.40;58.80
7530;DHT22;3806;52.270;10.544;2022-07-29T01:29:55;17.40;58.90
7530;DHT22;3806;52.270;10.544;2022-07-29T01:32:27;17.40;59.10
7530;DHT22;3806;52.270;10.544;2022-07-29T01:35:15;17.30;59.30
7530;DHT22;3806;52.270;10.544;2022-07-29T01:37:43;17.40;59.50
7530;DHT22;3806;52.270;10.544;2022-07-29T01:40:18;17.40;59.40
7530;DHT22;3806;52.270;10.544;2022-07-29T01:42:49;17.40;59.20
7530;DHT22;3806;52.270;10.544;2022-07-29T01:45:24;17.50;59.60
7530;DHT22;3806;52.270;10.544;2022-07-29T01:48:12;17.40;59.80
7530;DHT22;3806;52.270;10.544;2022-07-29T01:50:48;17.40;60.00
7530;DHT22;3806;52.270;10.544;2022-07-29T01:53:21;17.30;60.10
7530;DHT22;3806;52.270;10.544;2022-07-29T01:55:51;17.30;60.30
7530;DHT22;3806;52.270;10.544;2022-07-29T01:58:18;17.30;60.60
7530;DHT22;3806;52.270;10.544;2022-07-29T02:00:45;17.30;61.10
7530;DHT22;3806;52.270;10.544;2022-07-29T02:03:12;17.30;61.10
7530;DHT22;3806;52.270;10.544;2022-07-29T02:05:39;17.30;60.70
7530;DHT22;3806;52.270;10.544;2022-07-29T02:08:07;17.30;60.90
7530;DHT22;3806;52.270;10.544;2022-07-29T02:10:35;17.30;61.20
7530;DHT22;3806;52.270;10.544;2022-07-29T02:13:03;17.30;61.10
7530;DHT22;3806;52.270;10.544;2022-07-29T02:15:32;17.40;61.10
7530;DHT22;3806;52.270;10.544;2022-07-29T02:18:04;17.30;61.00
7530;DHT22;3806;52.270;10.544;2022-07-29T02:20:33;17.30;60.30
7530;DHT22;3806;52.270;10.544;2022-07-29T02:23:00;17.30;60.90
7530;DHT22;3806;52.270;10.544;2022-07-29T02:25:27;17.30;60.70
7530;DHT22;3806;52.270;10.544;2022-07-29T02:27:54;17.30;60.60
7530;DHT22;3806;52.270;10.544;2022-07-29T02:30:21;17.30;60.80
7530;DHT22;3806;52.270;10.544;2022-07-29T02:32:48;17.30;61.00
7530;DHT22;3806;52.270;10.544;2022-07-29T02:35:16;17.30;61.00
7530;DHT22;3806;52.270;10.544;2022-07-29T02:37:43;17.30;60.70
7530;DHT22;3806;52.270;10.544;2022-07-29T02:40:11;17.30;60.80
7530;DHT22;3806;52.270;10.544;2022-07-29T02:42:41;17.30;61.20
7530;DHT22;3806;52.270;10.544;2022-07-29T02:45:08;17.20;61.30
7530;DHT22;3806;52.270;10.544;2022-07-29T02:47:42;17.30;61.70
7530;DHT22;3806;52.270;10.544;2022-07-29T02:53:00;17.20;62.10
7530;DHT22;3806;52.270;10.544;2022-07-29T02:55:30;17.30;62.20
7530;DHT22;3806;52.270;10.544;2022-07-29T03:00:42;17.30;62.30
7530;DHT22;3806;52.270;10.544;2022-07-29T03:03:13;17.20;62.50
7530;DHT22;3806;52.270;10.544;2022-07-29T03:05:40;17.20;62.60
7530;DHT22;3806;52.270;10.544;2022-07-29T03:08:07;17.20;62.70
7530;DHT22;3806;52.270;10.544;2022-07-29T03:10:34;17.20;62.70
7530;DHT22;3806;52.270;10.544;2022-07-29T03:13:03;17.20;62.90
7530;DHT22;3806;52.270;10.544;2022-07-29T03:15:30;17.20;62.90
7530;DHT22;3806;52.270;10.544;2022-07-29T03:17:56;17.20;63.10
7530;DHT22;3806;52.270;10.544;2022-07-29T03:20:23;17.20;63.10
7530;DHT22;3806;52.270;10.544;2022-07-29T03:22:49;17.20;63.10
7530;DHT22;3806;52.270;10.544;2022-07-29T03:25:16;17.20;63.10
7530;DHT22;3806;52.270;10.544;2022-07-29T03:27:43;17.20;63.80
7530;DHT22;3806;52.270;10.544;2022-07-29T03:30:10;17.20;63.10
7530;DHT22;3806;52.270;10.544;2022-07-29T03:32:37;17.20;63.30
7530;DHT22;3806;52.270;10.544;2022-07-29T03:35:03;17.20;63.20
7530;DHT22;3806;52.270;10.544;2022-07-29T03:37:29;17.20;63.10
7530;DHT22;3806;52.270;10.544;2022-07-29T03:40:00;17.20;63.20
7530;DHT22;3806;52.270;10.544;2022-07-29T03:42:30;17.10;63.30
7530;DHT22;3806;52.270;10.544;2022-07-29T03:44:57;17.10;63.70
7530;DHT22;3806;52.270;10.544;2022-07-29T03:47:26;17.00;64.00
7530;DHT22;3806;52.270;10.544;2022-07-29T03:49:58;17.00;64.10
7530;DHT22;3806;52.270;10.544;2022-07-29T03:52:25;17.00;64.30
7530;DHT22;3806;52.270;10.544;2022-07-29T03:54:51;17.00;64.50
7530;DHT22;3806;52.270;10.544;2022-07-29T03:57:19;17.00;64.60
7530;DHT22;3806;52.270;10.544;2022-07-29T03:59:45;17.00;64.60
7530;DHT22;3806;52.270;10.544;2022-07-29T04:02:12;16.90;65.00
7530;DHT22;3806;52.270;10.544;2022-07-29T04:04:38;16.80;65.40
7530;DHT22;3806;52.270;10.544;2022-07-29T04:07:04;16.80;65.80
7530;DHT22;3806;52.270;10.544;2022-07-29T04:09:30;16.70;66.10
7530;DHT22;3806;52.270;10.544;2022-07-29T04:11:55;16.80;66.40
7530;DHT22;3806;52.270;10.544;2022-07-29T04:14:21;16.80;66.60
7530;DHT22;3806;52.270;10.544;2022-07-29T04:16:47;16.80;66.70
7530;DHT22;3806;52.270;10.544;2022-07-29T04:19:12;16.80;66.90
7530;DHT22;3806;52.270;10.544;2022-07-29T04:21:39;16.80;67.10
7530;DHT22;3806;52.270;10.544;2022-07-29T04:24:06;16.80;67.30
7530;DHT22;3806;52.270;10.544;2022-07-29T04:26:32;16.80;67.40
7530;DHT22;3806;52.270;10.544;2022-07-29T04:28:58;16.80;67.40
7530;DHT22;3806;52.270;10.544;2022-07-29T04:31:23;16.90;67.60
7530;DHT22;3806;52.270;10.544;2022-07-29T04:33:49;16.90;67.60
7530;DHT22;3806;52.270;10.544;2022-07-29T04:36:15;16.90;67.60
7530;DHT22;3806;52.270;10.544;2022-07-29T04:38:40;17.00;67.80
7530;DHT22;3806;52.270;10.544;2022-07-29T04:41:06;17.00;67.90
7530;DHT22;3806;52.270;10.544;2022-07-29T04:43:34;17.00;67.90
7530;DHT22;3806;52.270;10.544;2022-07-29T04:46:00;17.10;68.10
7530;DHT22;3806;52.270;10.544;2022-07-29T04:48:26;17.20;68.40
7530;DHT22;3806;52.270;10.544;2022-07-29T04:50:51;17.30;68.40
7530;DHT22;3806;52.270;10.544;2022-07-29T04:53:17;17.30;68.50
7530;DHT22;3806;52.270;10.544;2022-07-29T04:55:43;17.30;68.50
7530;DHT22;3806;52.270;10.544;2022-07-29T04:58:08;17.40;68.70
7530;DHT22;3806;52.270;10.544;2022-07-29T05:00:34;17.40;68.70
7530;DHT22;3806;52.270;10.544;2022-07-29T05:03:00;17.40;68.60
7530;DHT22;3806;52.270;10.544;2022-07-29T05:05:25;17.50;68.60
7530;DHT22;3806;52.270;10.544;2022-07-29T05:07:52;17.60;68.70
7530;DHT22;3806;52.270;10.544;2022-07-29T05:10:17;17.60;68.60
7530;DHT22;3806;52.270;10.544;2022-07-29T05:12:43;17.60;68.50
7530;DHT22;3806;52.270;10.544;2022-07-29T05:15:09;17.70;68.50
7530;DHT22;3806;52.270;10.544;2022-07-29T05:17:35;17.70;68.40
7530;DHT22;3806;52.270;10.544;2022-07-29T05:20:00;17.80;68.30
7530;DHT22;3806;52.270;10.544;2022-07-29T05:22:26;17.90;68.10
7530;DHT22;3806;52.270;10.544;2022-07-29T05:24:51;17.90;68.10
7530;DHT22;3806;52.270;10.544;2022-07-29T05:27:17;18.00;68.20
7530;DHT22;3806;52.270;10.544;2022-07-29T05:29:43;18.20;68.00
7530;DHT22;3806;52.270;10.544;2022-07-29T05:32:08;18.30;67.40
7530;DHT22;3806;52.270;10.544;2022-07-29T05:34:34;18.50;67.10
7530;DHT22;3806;52.270;10.544;2022-07-29T05:37:00;18.60;66.80
7530;DHT22;3806;52.270;10.544;2022-07-29T05:39:25;18.70;66.30
7530;DHT22;3806;52.270;10.544;2022-07-29T05:41:51;18.70;65.60
7530;DHT22;3806;52.270;10.544;2022-07-29T05:44:17;18.70;65.70
7530;DHT22;3806;52.270;10.544;2022-07-29T05:46:42;18.60;65.70
7530;DHT22;3806;52.270;10.544;2022-07-29T05:49:08;18.60;66.00
7530;DHT22;3806;52.270;10.544;2022-07-29T05:51:34;18.60;66.30
7530;DHT22;3806;52.270;10.544;2022-07-29T05:54:00;18.60;67.20
7530;DHT22;3806;52.270;10.544;2022-07-29T05:56:26;18.70;66.60
7530;DHT22;3806;52.270;10.544;2022-07-29T05:58:52;18.70;66.20
7530;DHT22;3806;52.270;10.544;2022-07-29T06:01:18;18.90;66.90
7530;DHT22;3806;52.270;10.544;2022-07-29T06:03:43;19.30;65.50
7530;DHT22;3806;52.270;10.544;2022-07-29T06:06:09;19.50;64.40
7530;DHT22;3806;52.270;10.544;2022-07-29T06:08:35;19.70;63.80
7530;DHT22;3806;52.270;10.544;2022-07-29T06:11:02;20.00;63.30
7530;DHT22;3806;52.270;10.544;2022-07-29T06:13:28;20.20;62.60
7530;DHT22;3806;52.270;10.544;2022-07-29T06:15:54;20.40;61.70
7530;DHT22;3806;52.270;10.544;2022-07-29T06:18:20;20.80;61.80
7530;DHT22;3806;52.270;10.544;2022-07-29T06:20:49;21.80;59.80
7530;DHT22;3806;52.270;10.544;2022-07-29T06:23:15;22.50;57.50
7530;DHT22;3806;52.270;10.544;2022-07-29T06:25:41;22.80;55.90
7530;DHT22;3806;52.270;10.544;2022-07-29T06:28:06;22.90;54.70
7530;DHT22;3806;52.270;10.544;2022-07-29T06:30:32;23.00;54.40
7530;DHT22;3806;52.270;10.544;2022-07-29T06:32:58;22.90;54.10
7530;DHT22;3806;52.270;10.544;2022-07-29T06:35:23;22.80;53.80
7530;DHT22;3806;52.270;10.544;2022-07-29T06:37:49;22.80;53.70
7530;DHT22;3806;52.270;10.544;2022-07-29T06:40:14;22.80;53.70
7530;DHT22;3806;52.270;10.544;2022-07-29T06:42:58;22.70;53.80
7530;DHT22;3806;52.270;10.544;2022-07-29T06:45:24;22.50;53.90
7530;DHT22;3806;52.270;10.544;2022-07-29T06:47:50;22.30;54.20
7530;DHT22;3806;52.270;10.544;2022-07-29T06:50:16;22.00;54.70
7530;DHT22;3806;52.270;10.544;2022-07-29T06:52:41;21.80;55.20
7530;DHT22;3806;52.270;10.544;2022-07-29T06:55:08;21.70;55.70
7530;DHT22;3806;52.270;10.544;2022-07-29T06:57:34;21.70;56.10
7530;DHT22;3806;52.270;10.544;2022-07-29T06:59:59;21.80;56.20
7530;DHT22;3806;52.270;10.544;2022-07-29T07:02:25;22.00;56.00
7530;DHT22;3806;52.270;10.544;2022-07-29T07:04:51;22.30;55.60
7530;DHT22;3806;52.270;10.544;2022-07-29T07:07:16;22.60;54.90
7530;DHT22;3806;52.270;10.544;2022-07-29T07:09:42;23.10;54.30
7530;DHT22;3806;52.270;10.544;2022-07-29T07:12:08;23.90;53.60
7530;DHT22;3806;52.270;10.544;2022-07-29T07:14:34;24.60;52.10
7530;DHT22;3806;52.270;10.544;2022-07-29T07:16:59;25.40;50.30
7530;DHT22;3806;52.270;10.544;2022-07-29T07:19:26;25.90;48.30
7530;DHT22;3806;52.270;10.544;2022-07-29T07:21:52;26.20;46.60
7530;DHT22;3806;52.270;10.544;2022-07-29T07:24:18;26.50;45.70
7530;DHT22;3806;52.270;10.544;2022-07-29T07:26:44;26.80;45.10
7530;DHT22;3806;52.270;10.544;2022-07-29T07:29:10;27.30;44.00
7530;DHT22;3806;52.270;10.544;2022-07-29T07:31:37;27.60;42.60
7530;DHT22;3806;52.270;10.544;2022-07-29T07:34:03;27.60;42.70
7530;DHT22;3806;52.270;10.544;2022-07-29T07:36:29;27.40;42.40
7530;DHT22;3806;52.270;10.544;2022-07-29T07:38:54;27.10;42.70
7530;DHT22;3806;52.270;10.544;2022-07-29T07:41:21;27.00;42.70
7530;DHT22;3806;52.270;10.544;2022-07-29T07:43:47;27.00;42.30
7530;DHT22;3806;52.270;10.544;2022-07-29T07:46:12;27.20;42.60
7530;DHT22;3806;52.270;10.544;2022-07-29T07:48:38;27.70;42.60
7530;DHT22;3806;52.270;10.544;2022-07-29T07:51:04;28.40;41.30
7530;DHT22;3806;52.270;10.544;2022-07-29T07:53:29;28.80;40.40
7530;DHT22;3806;52.270;10.544;2022-07-29T07:55:55;29.20;39.70
7530;DHT22;3806;52.270;10.544;2022-07-29T07:58:21;29.60;38.90
7530;DHT22;3806;52.270;10.544;2022-07-29T08:00:47;30.10;38.00
7530;DHT22;3806;52.270;10.544;2022-07-29T08:03:13;30.70;37.20
7530;DHT22;3806;52.270;10.544;2022-07-29T08:05:39;30.80;36.20
7530;DHT22;3806;52.270;10.544;2022-07-29T08:08:06;30.50;35.50
7530;DHT22;3806;52.270;10.544;2022-07-29T08:10:31;29.90;36.00
7530;DHT22;3806;52.270;10.544;2022-07-29T08:13:15;29.20;36.70
7530;DHT22;3806;52.270;10.544;2022-07-29T08:15:41;28.60;38.20
7530;DHT22;3806;52.270;10.544;2022-07-29T08:18:08;28.30;38.70
7530;DHT22;3806;52.270;10.544;2022-07-29T08:20:35;27.90;39.30
7530;DHT22;3806;52.270;10.544;2022-07-29T08:23:01;27.60;40.00
7530;DHT22;3806;52.270;10.544;2022-07-29T08:25:27;27.30;40.20
7530;DHT22;3806;52.270;10.544;2022-07-29T08:27:53;27.00;40.60
7530;DHT22;3806;52.270;10.544;2022-07-29T08:30:19;26.80;41.30
7530;DHT22;3806;52.270;10.544;2022-07-29T08:32:44;26.70;41.40
7530;DHT22;3806;52.270;10.544;2022-07-29T08:35:10;26.50;41.30
7530;DHT22;3806;52.270;10.544;2022-07-29T08:37:35;26.50;41.60
7530;DHT22;3806;52.270;10.544;2022-07-29T08:40:01;26.70;41.70
7530;DHT22;3806;52.270;10.544;2022-07-29T08:42:27;27.00;41.40
7530;DHT22;3806;52.270;10.544;2022-07-29T08:44:53;27.20;41.40
7530;DHT22;3806;52.270;10.544;2022-07-29T08:47:19;27.60;40.90
7530;DHT22;3806;52.270;10.544;2022-07-29T08:49:45;28.10;40.30
7530;DHT22;3806;52.270;10.544;2022-07-29T08:52:12;28.70;40.10
7530;DHT22;3806;52.270;10.544;2022-07-29T08:54:39;29.30;38.50
7530;DHT22;3806;52.270;10.544;2022-07-29T08:57:06;29.80;37.60
7530;DHT22;3806;52.270;10.544;2022-07-29T08:59:33;30.00;36.80
7530;DHT22;3806;52.270;10.544;2022-07-29T09:02:00;30.10;36.50
7530;DHT22;3806;52.270;10.544;2022-07-29T09:04:32;29.90;36.50
7530;DHT22;3806;52.270;10.544;2022-07-29T09:07:04;29.70;36.80
7530;DHT22;3806;52.270;10.544;2022-07-29T09:09:30;29.60;37.30
7530;DHT22;3806;52.270;10.544;2022-07-29T09:11:58;29.60;36.90
7530;DHT22;3806;52.270;10.544;2022-07-29T09:14:24;29.30;37.00
7530;DHT22;3806;52.270;10.544;2022-07-29T09:16:55;29.10;37.50
7530;DHT22;3806;52.270;10.544;2022-07-29T09:19:27;29.10;37.90
7530;DHT22;3806;52.270;10.544;2022-07-29T09:21:54;29.00;37.90
7530;DHT22;3806;52.270;10.544;2022-07-29T09:24:23;28.90;37.80
7530;DHT22;3806;52.270;10.544;2022-07-29T09:26:48;28.80;37.90
7530;DHT22;3806;52.270;10.544;2022-07-29T09:29:19;28.70;38.60
7530;DHT22;3806;52.270;10.544;2022-07-29T09:31:47;28.60;38.70
7530;DHT22;3806;52.270;10.544;2022-07-29T09:34:16;28.50;38.70
7530;DHT22;3806;52.270;10.544;2022-07-29T09:36:45;28.40;38.90
7530;DHT22;3806;52.270;10.544;2022-07-29T09:39:12;28.30;38.60
7530;DHT22;3806;52.270;10.544;2022-07-29T09:42:05;28.40;39.10
7530;DHT22;3806;52.270;10.544;2022-07-29T09:44:45;28.80;38.60
7530;DHT22;3806;52.270;10.544;2022-07-29T09:47:11;29.30;38.10
7530;DHT22;3806;52.270;10.544;2022-07-29T09:49:59;29.60;37.70
7530;DHT22;3806;52.270;10.544;2022-07-29T09:52:29;30.00;37.10
7530;DHT22;3806;52.270;10.544;2022-07-29T09:55:05;30.40;36.50
7530;DHT22;3806;52.270;10.544;2022-07-29T09:57:31;30.70;36.10
7530;DHT22;3806;52.270;10.544;2022-07-29T10:00:01;30.90;35.60
7530;DHT22;3806;52.270;10.544;2022-07-29T10:02:32;31.10;35.50
7530;DHT22;3806;52.270;10.544;2022-07-29T10:04:59;31.30;35.30
7530;DHT22;3806;52.270;10.544;2022-07-29T10:07:25;31.50;34.80
7530;DHT22;3806;52.270;10.544;2022-07-29T10:09:57;31.60;34.40
7530;DHT22;3806;52.270;10.544;2022-07-29T10:12:24;31.80;33.70
7530;DHT22;3806;52.270;10.544;2022-07-29T10:14:50;31.60;33.80
7530;DHT22;3806;52.270;10.544;2022-07-29T10:17:17;31.60;34.10
7530;DHT22;3806;52.270;10.544;2022-07-29T10:19:44;31.40;34.10
7530;DHT22;3806;52.270;10.544;2022-07-29T10:22:10;31.30;34.30
7530;DHT22;3806;52.270;10.544;2022-07-29T10:24:38;31.10;34.50
7530;DHT22;3806;52.270;10.544;2022-07-29T10:27:05;30.90;34.80
7530;DHT22;3806;52.270;10.544;2022-07-29T10:29:31;30.60;34.50
7530;DHT22;3806;52.270;10.544;2022-07-29T10:37:03;30.00;35.90
7530;DHT22;3806;52.270;10.544;2022-07-29T10:39:51;29.80;36.40
7530;DHT22;3806;52.270;10.544;2022-07-29T10:42:21;29.60;36.70
7530;DHT22;3806;52.270;10.544;2022-07-29T10:44:50;29.40;36.80
7530;DHT22;3806;52.270;10.544;2022-07-29T10:47:26;29.20;37.00
7530;DHT22;3806;52.270;10.544;2022-07-29T10:50:03;29.00;37.20
7530;DHT22;3806;52.270;10.544;2022-07-29T10:55:31;28.60;37.80
7530;DHT22;3806;52.270;10.544;2022-07-29T10:58:18;28.50;37.90
7530;DHT22;3806;52.270;10.544;2022-07-29T11:00:47;28.30;38.30
7530;DHT22;3806;52.270;10.544;2022-07-29T11:03:45;28.20;38.40
7530;DHT22;3806;52.270;10.544;2022-07-29T11:06:11;28.00;38.40
7530;DHT22;3806;52.270;10.544;2022-07-29T11:08:36;27.90;38.70
7530;DHT22;3806;52.270;10.544;2022-07-29T11:13:48;27.80;39.40
7530;DHT22;3806;52.270;10.544;2022-07-29T11:16:16;27.80;39.30
7530;DHT22;3806;52.270;10.544;2022-07-29T11:21:37;27.60;39.50
7530;DHT22;3806;52.270;10.544;2022-07-29T11:24:13;27.60;39.70
7530;DHT22;3806;52.270;10.544;2022-07-29T11:26:40;27.60;40.00
7530;DHT22;3806;52.270;10.544;2022-07-29T11:29:20;27.60;40.10
7530;DHT22;3806;52.270;10.544;2022-07-29T11:31:51;27.50;39.80
7530;DHT22;3806;52.270;10.544;2022-07-29T11:34:31;27.40;39.50
7530;DHT22;3806;52.270;10.544;2022-07-29T11:39:38;27.30;40.10
7530;DHT22;3806;52.270;10.544;2022-07-29T11:45:08;27.30;40.30
7530;DHT22;3806;52.270;10.544;2022-07-29T11:47:49;27.30;40.10
7530;DHT22;3806;52.270;10.544;2022-07-29T11:50:35;27.20;40.10
7530;DHT22;3806;52.270;10.544;2022-07-29T11:53:05;27.20;39.90
7530;DHT22;3806;52.270;10.544;2022-07-29T11:55:37;27.20;39.80
7530;DHT22;3806;52.270;10.544;2022-07-29T11:58:02;27.30;40.00
7530;DHT22;3806;52.270;10.544;2022-07-29T12:00:40;27.30;39.40
7530;DHT22;3806;52.270;10.544;2022-07-29T12:03:08;27.30;38.50
7530;DHT22;3806;52.270;10.544;2022-07-29T12:05:39;27.20;38.60
7530;DHT22;3806;52.270;10.544;2022-07-29T12:08:19;27.20;38.80
7530;DHT22;3806;52.270;10.544;2022-07-29T12:10:50;27.20;38.80
7530;DHT22;3806;52.270;10.544;2022-07-29T12:13:20;27.20;38.80
7530;DHT22;3806;52.270;10.544;2022-07-29T12:15:55;27.20;38.80
7530;DHT22;3806;52.270;10.544;2022-07-29T12:18:22;27.20;38.60
7530;DHT22;3806;52.270;10.544;2022-07-29T12:20:48;27.10;38.60
7530;DHT22;3806;52.270;10.544;2022-07-29T12:23:21;27.10;38.80
7530;DHT22;3806;52.270;10.544;2022-07-29T12:25:46;27.20;35.90
7530;DHT22;3806;52.270;10.544;2022-07-29T12:28:13;27.20;34.80
7530;DHT22;3806;52.270;10.544;2022-07-29T12:30:50;27.10;34.40
7530;DHT22;3806;52.270;10.544;2022-07-29T12:33:34;27.10;34.60
7530;DHT22;3806;52.270;10.544;2022-07-29T12:36:01;27.00;34.80
7530;DHT22;3806;52.270;10.544;2022-07-29T12:38:27;27.00;33.60
7530;DHT22;3806;52.270;10.544;2022-07-29T12:40:54;27.00;33.40
7530;DHT22;3806;52.270;10.544;2022-07-29T12:43:22;27.10;33.40
7530;DHT22;3806;52.270;10.544;2022-07-29T12:45:50;27.10;33.40
7530;DHT22;3806;52.270;10.544;2022-07-29T12:48:16;27.10;33.10
7530;DHT22;3806;52.270;10.544;2022-07-29T12:51:02;27.10;32.90
7530;DHT22;3806;52.270;10.544;2022-07-29T12:53:28;27.20;33.00
7530;DHT22;3806;52.270;10.544;2022-07-29T12:55:55;27.20;32.90
7530;DHT22;3806;52.270;10.544;2022-07-29T12:58:32;27.20;33.30
7530;DHT22;3806;52.270;10.544;2022-07-29T13:01:00;27.20;33.20
7530;DHT22;3806;52.270;10.544;2022-07-29T13:03:26;27.30;32.40
7530;DHT22;3806;52.270;10.544;2022-07-29T13:05:52;27.30;32.60
7530;DHT22;3806;52.270;10.544;2022-07-29T13:08:18;27.20;32.70
7530;DHT22;3806;52.270;10.544;2022-07-29T13:10:49;27.30;32.70
7530;DHT22;3806;52.270;10.544;2022-07-29T13:13:15;27.30;32.60
7530;DHT22;3806;52.270;10.544;2022-07-29T13:15:43;27.30;33.00
7530;DHT22;3806;52.270;10.544;2022-07-29T13:18:33;27.30;33.30
7530;DHT22;3806;52.270;10.544;2022-07-29T13:21:15;27.40;32.90
7530;DHT22;3806;52.270;10.544;2022-07-29T13:23:41;27.50;32.10
7530;DHT22;3806;52.270;10.544;2022-07-29T13:26:11;27.40;32.60
7530;DHT22;3806;52.270;10.544;2022-07-29T13:28:41;27.50;32.50
7530;DHT22;3806;52.270;10.544;2022-07-29T13:31:07;27.50;32.70
7530;DHT22;3806;52.270;10.544;2022-07-29T13:33:33;27.50;33.20
7530;DHT22;3806;52.270;10.544;2022-07-29T13:35:58;27.50;33.20
7530;DHT22;3806;52.270;10.544;2022-07-29T13:38:24;27.60;33.20
7530;DHT22;3806;52.270;10.544;2022-07-29T13:40:49;27.60;33.60
7530;DHT22;3806;52.270;10.544;2022-07-29T13:43:15;27.60;33.30
7530;DHT22;3806;52.270;10.544;2022-07-29T13:45:40;27.70;33.20
7530;DHT22;3806;52.270;10.544;2022-07-29T13:48:06;27.70;33.00
7530;DHT22;3806;52.270;10.544;2022-07-29T13:50:32;27.70;32.90
7530;DHT22;3806;52.270;10.544;2022-07-29T13:52:58;27.70;33.00
7530;DHT22;3806;52.270;10.544;2022-07-29T13:55:23;27.80;33.10
7530;DHT22;3806;52.270;10.544;2022-07-29T13:57:49;27.80;33.20
7530;DHT22;3806;52.270;10.544;2022-07-29T14:00:15;27.90;33.10
7530;DHT22;3806;52.270;10.544;2022-07-29T14:02:41;27.90;33.00
7530;DHT22;3806;52.270;10.544;2022-07-29T14:05:08;28.00;31.60
7530;DHT22;3806;52.270;10.544;2022-07-29T14:07:35;28.00;32.10
7530;DHT22;3806;52.270;10.544;2022-07-29T14:10:00;28.00;32.30
7530;DHT22;3806;52.270;10.544;2022-07-29T14:12:26;28.10;32.00
7530;DHT22;3806;52.270;10.544;2022-07-29T14:14:52;28.10;31.70
7530;DHT22;3806;52.270;10.544;2022-07-29T14:17:17;28.20;31.70
7530;DHT22;3806;52.270;10.544;2022-07-29T14:19:43;28.20;32.10
7530;DHT22;3806;52.270;10.544;2022-07-29T14:22:09;28.20;32.20
7530;DHT22;3806;52.270;10.544;2022-07-29T14:24:36;28.20;32.30
7530;DHT22;3806;52.270;10.544;2022-07-29T14:27:02;28.20;32.70
7530;DHT22;3806;52.270;10.544;2022-07-29T14:29:28;28.20;32.70
7530;DHT22;3806;52.270;10.544;2022-07-29T14:31:53;28.20;32.80
7530;DHT22;3806;52.270;10.544;2022-07-29T14:34:19;28.20;32.40
7530;DHT22;3806;52.270;10.544;2022-07-29T14:36:45;28.10;32.50
7530;DHT22;3806;52.270;10.544;2022-07-29T14:39:11;28.10;32.40
7530;DHT22;3806;52.270;10.544;2022-07-29T14:41:36;28.00;32.50
7530;DHT22;3806;52.270;10.544;2022-07-29T14:44:03;28.00;32.90
7530;DHT22;3806;52.270;10.544;2022-07-29T14:46:29;28.00;33.10
7530;DHT22;3806;52.270;10.544;2022-07-29T14:48:55;27.90;33.10
7530;DHT22;3806;52.270;10.544;2022-07-29T14:51:20;27.90;33.40
7530;DHT22;3806;52.270;10.544;2022-07-29T14:53:46;27.90;33.50
7530;DHT22;3806;52.270;10.544;2022-07-29T14:56:12;27.80;33.40
7530;DHT22;3806;52.270;10.544;2022-07-29T14:58:38;27.80;33.70
7530;DHT22;3806;52.270;10.544;2022-07-29T15:01:03;27.70;33.50
7530;DHT22;3806;52.270;10.544;2022-07-29T15:03:29;27.60;33.30
7530;DHT22;3806;52.270;10.544;2022-07-29T15:05:54;27.50;33.60
7530;DHT22;3806;52.270;10.544;2022-07-29T15:08:20;27.50;33.80
7530;DHT22;3806;52.270;10.544;2022-07-29T15:10:47;27.50;33.90
7530;DHT22;3806;52.270;10.544;2022-07-29T15:13:12;27.30;34.00
7530;DHT22;3806;52.270;10.544;2022-07-29T15:15:38;27.30;34.40
7530;DHT22;3806;52.270;10.544;2022-07-29T15:18:04;27.10;34.50
7530;DHT22;3806;52.270;10.544;2022-07-29T15:20:29;27.10;34.70
7530;DHT22;3806;52.270;10.544;2022-07-29T15:22:55;27.00;34.40
7530;DHT22;3806;52.270;10.544;2022-07-29T15:25:22;27.00;34.60
7530;DHT22;3806;52.270;10.544;2022-07-29T15:27:47;26.90;34.80
7530;DHT22;3806;52.270;10.544;2022-07-29T15:30:13;26.80;34.90
7530;DHT22;3806;52.270;10.544;2022-07-29T15:32:42;26.90;35.00
7530;DHT22;3806;52.270;10.544;2022-07-29T15:35:07;26.90;35.10
7530;DHT22;3806;52.270;10.544;2022-07-29T15:37:35;26.90;35.30
7530;DHT22;3806;52.270;10.544;2022-07-29T15:40:01;26.80;35.30
7530;DHT22;3806;52.270;10.544;2022-07-29T15:42:26;26.80;35.40
7530;DHT22;3806;52.270;10.544;2022-07-29T15:44:52;26.70;35.40
7530;DHT22;3806;52.270;10.544;2022-07-29T15:47:18;26.70;35.50
7530;DHT22;3806;52.270;10.544;2022-07-29T15:49:43;26.60;35.60
7530;DHT22;3806;52.270;10.544;2022-07-29T15:52:09;26.60;35.70
7530;DHT22;3806;52.270;10.544;2022-07-29T15:54:37;26.60;35.90
7530;DHT22;3806;52.270;10.544;2022-07-29T15:57:03;26.50;36.00
7530;DHT22;3806;52.270;10.544;2022-07-29T15:59:30;26.60;36.30
7530;DHT22;3806;52.270;10.544;2022-07-29T16:01:56;26.60;36.40
7530;DHT22;3806;52.270;10.544;2022-07-29T16:04:22;26.60;36.40
7530;DHT22;3806;52.270;10.544;2022-07-29T16:06:48;26.60;36.60
7530;DHT22;3806;52.270;10.544;2022-07-29T16:09:15;26.50;36.70
7530;DHT22;3806;52.270;10.544;2022-07-29T16:11:41;26.50;36.80
7530;DHT22;3806;52.270;10.544;2022-07-29T16:14:07;26.50;36.90
7530;DHT22;3806;52.270;10.544;2022-07-29T16:16:32;26.50;37.00
7530;DHT22;3806;52.270;10.544;2022-07-29T16:18:58;26.50;37.10